Flight Track Log - Related Links

Times and Time Zones

All times are in EDT time to prevent confusion due to time zone crossing. See the AMF9313 flight status page for this flight to view local times or setup timezone preferences in your user account.

Time Position Orientation Groundspeed Altitude Reporting Facility
EDT Latitude Longitude Course Direction KTS MPH feet Rate Location/Type
Sat 07:05:21 AM 35.7975 -84.0439 265° West 174 200 2,800  Level Atlanta Center
Sat 07:06:21 AM 35.7933 -84.1028 265° West 174 200 4,800 1,950 Climbing Atlanta Center
Sat 07:07:21 AM 35.7911 -84.1592 267° West 174 200 6,700 1,750 Climbing Atlanta Center
Sat 07:08:21 AM 35.7911 -84.2153 270° West 174 200 8,300 1,600 Climbing Atlanta Center
Sat 07:09:21 AM 35.7911 -84.2742 270° West 174 200 9,900 1,500 Climbing Atlanta Center
Sat 07:10:21 AM 35.7908 -84.3331 270° West 174 200 11,300 1,250 Climbing Atlanta Center
Sat 07:11:21 AM 35.7928 -84.3894 272° West 174 200 12,400 1,150 Climbing Atlanta Center
Sat 07:12:21 AM 35.7989 -84.4511 277° West 180 207 13,600 1,100 Climbing Atlanta Center
Sat 07:13:21 AM 35.8069 -84.5125 279° West 180 207 14,600 1,000 Climbing Atlanta Center
Sat 07:14:21 AM 35.8131 -84.5739 277° West 180 207 15,600 750 Climbing Atlanta Center
Sat 07:15:21 AM 35.8169 -84.6381 274° West 185 213 16,100 250 Climbing Atlanta Center
Sat 07:16:21 AM 35.8228 -84.7097 276° West 195 224 16,100  Level Atlanta Center
Sat 07:17:21 AM 35.8308 -84.7814 278° West 206 237 16,100  Level Atlanta Center
Sat 07:18:21 AM 35.8389 -84.8353 280° West 206 237 16,100  Level Atlanta Center
Sat 07:20:50 AM 35.8650 -85.0344 279° West 220 253 16,100 -86 Level Memphis Center
Sat 07:21:50 AM 35.8786 -85.1078 283° West 220 253 15,800 -700 Descending Memphis Center
Sat 07:22:50 AM 35.8883 -85.1892 278° West 220 253 14,700 -1,050 Descending Memphis Center
Sat 07:23:50 AM 35.8939 -85.2733 275° West 239 275 13,700 -1,150 Descending Memphis Center
Sat 07:24:50 AM 35.8994 -85.3600 275° West 249 287 12,400 -1,050 Descending Memphis Center
Sat 07:25:50 AM 35.9067 -85.4339 277° West 255 293 11,600 -850 Descending Memphis Center
Sat 07:26:50 AM 35.9142 -85.5206 276° West 255 293 10,700 -850 Descending Memphis Center
Sat 07:27:50 AM 35.9217 -85.6072 276° West 255 293 9,900 -850 Descending Memphis Center
Sat 07:28:50 AM 35.9311 -85.6914 278° West 255 293 9,000 -850 Descending Memphis Center
Sat 07:29:50 AM 35.9386 -85.7781 276° West 255 293 8,200 -500 Descending Memphis Center
Sat 07:30:50 AM 35.9483 -85.8750 277° West 255 293 8,000 -600 Descending Memphis Center
Sat 07:31:50 AM 35.9536 -85.9619 274° West 255 293 7,000 -1,100 Descending Memphis Center
Sat 07:32:50 AM 35.9586 -86.0514 274° West 260 299 5,800 -1,200 Descending Memphis Center
Sat 07:33:50 AM 35.9658 -86.1383 276° West 260 299 4,600 -1,000 Descending Memphis Center
Sat 07:34:50 AM 35.9747 -86.2172 278° West 260 299 3,800 -800 Descending Memphis Center
Sat 07:35:50 AM 35.9817 -86.2989 276° West 250 288 3,000 2,100 Descending Memphis Center
Sat 07:36:50 AM 35.9847 -86.3911 272° West 250 288 8,000 2,500 Climbing Memphis Center
Sat 07:37:50 AM 35.9911 -86.4678 276° West 250 288 8,000  Level Memphis Center
Sat 07:38:50 AM 35.9997 -86.5444 278° West 250 288 8,000  Level Memphis Center
Sat 07:39:50 AM 36.0022 -86.6264 272° West 250 288 8,000  Level Memphis Center
Sat 07:40:50 AM 36.0022 -86.6264 22° Northeast 250 288 8,000  Level Memphis Center
Sat 07:43:00 AM 36.0004 -86.5363 91° East  Level FlightAware Approximate
Sat 07:50:00 AM 36.0000 -86.5167 90° East  Level FlightAware Approximate
Sat 07:51:00 AM 36.0090 -86.5201 90° East  Level Estimated
Sat 07:52:00 AM 36.0090 -86.5201 90° East  Level Estimated
Sat 07:53:00 AM 36.0090 -86.5201 90° East  Level Estimated
Sat 07:54:00 AM 36.0090 -86.5201 90° East  Level Estimated
Sat 07:55:00 AM 36.0090 -86.5201 90° East  Level Estimated
Sat 07:56:00 AM 36.0090 -86.5201 90° East  Level Estimated
Sat 07:57:00 AM 36.0090 -86.5201 90° East  Level Estimated

Login

Don't have an account? Register now (free) for customized features, flight alerts, and more!